KCGZ/CGZ METAR and TAF weather

Enter ICAO airport designator
Station Type Date Time Source
KCGZ METAR 2020/01/21 20:56 UTC NOAA

KCGZ 212056Z AUTO VRB03KT 10SM SCT022 BKN035 OVC044 14/09 A3008 RMK AO2 SLP184 60000 T01390089 58021


Station Type Date Time Source
KCGZ Decoded METAR 2020/01/21 20:56 UTC NOAA

Casa Grande, Casa Grande Municipal Airport, AZ, United States (KCGZ) 32-57N 111-46W
Jan 21, 2020 - 03:56 PM EST / 2020.01.21 2056 UTC
Wind: Variable at 3 MPH (3 KT):0
Visibility: 10 mile(s):0
Sky conditions: overcast
Temperature: 57.0 F (13.9 C)
Dew Point: 48.0 F (8.9 C)
Relative Humidity: 71%
Pressure (altimeter): 30.08 in. Hg (1018 hPa)
Pressure tendency: 0.06 inches (2.1 hPa) lower than three hours ago
ob: KCGZ 212056Z AUTO VRB03KT 10SM SCT022 BKN035 OVC044 14/09 A3008 RMK AO2 SLP184 60000 T01390089 58021
cycle: 21

Station Type Date Time Source
KCGZ TAF UTC NOAA

Error!

Example: see airport list